sensor_id;sensor_type;location;lat;lon;timestamp;pressure;altitude;pressure_sealevel;temperature;humidity
66486;BME280;53303;47.476;8.084;2023-02-08T00:00:06;96775.47;;;18.84;30.85
66486;BME280;53303;47.476;8.084;2023-02-08T00:02:31;96756.75;;;18.79;30.78
66486;BME280;53303;47.476;8.084;2023-02-08T00:04:57;96760.72;;;18.78;31.15
66486;BME280;53303;47.476;8.084;2023-02-08T00:07:22;96766.13;;;18.81;30.84
66486;BME280;53303;47.476;8.084;2023-02-08T00:09:52;96758.13;;;18.83;31.02
66486;BME280;53303;47.476;8.084;2023-02-08T00:12:18;96746.31;;;18.83;30.82
66486;BME280;53303;47.476;8.084;2023-02-08T00:14:45;96745.56;;;18.82;30.94
66486;BME280;53303;47.476;8.084;2023-02-08T00:17:13;96741.66;;;18.80;30.84
66486;BME280;53303;47.476;8.084;2023-02-08T00:19:39;96734.91;;;18.81;30.95
66486;BME280;53303;47.476;8.084;2023-02-08T00:22:04;96739.66;;;18.80;30.82
66486;BME280;53303;47.476;8.084;2023-02-08T00:24:32;96733.09;;;18.78;30.79
66486;BME280;53303;47.476;8.084;2023-02-08T00:26:59;96741.38;;;18.78;30.78
66486;BME280;53303;47.476;8.084;2023-02-08T00:29:25;96736.91;;;18.80;31.05
66486;BME280;53303;47.476;8.084;2023-02-08T00:31:53;96734.63;;;18.79;30.69
66486;BME280;53303;47.476;8.084;2023-02-08T00:34:20;96735.72;;;18.81;30.92
66486;BME280;53303;47.476;8.084;2023-02-08T00:36:48;96731.38;;;18.80;30.69
66486;BME280;53303;47.476;8.084;2023-02-08T00:39:14;96725.84;;;18.80;30.69
66486;BME280;53303;47.476;8.084;2023-02-08T00:41:39;96729.84;;;18.79;31.03
66486;BME280;53303;47.476;8.084;2023-02-08T00:44:07;96727.84;;;18.80;30.84
66486;BME280;53303;47.476;8.084;2023-02-08T00:46:32;96733.38;;;18.80;30.81
66486;BME280;53303;47.476;8.084;2023-02-08T00:49:00;96726.78;;;18.77;30.78
66486;BME280;53303;47.476;8.084;2023-02-08T00:51:25;96709.75;;;18.70;30.88
66486;BME280;53303;47.476;8.084;2023-02-08T00:53:54;96718.50;;;18.77;30.83
66486;BME280;53303;47.476;8.084;2023-02-08T00:56:22;96724.50;;;18.76;30.64
66486;BME280;53303;47.476;8.084;2023-02-08T00:58:47;96723.56;;;18.79;30.78
66486;BME280;53303;47.476;8.084;2023-02-08T01:01:15;96711.25;;;18.80;30.80
66486;BME280;53303;47.476;8.084;2023-02-08T01:03:41;96706.19;;;18.78;30.71
66486;BME280;53303;47.476;8.084;2023-02-08T01:06:10;96711.72;;;18.78;30.57
66486;BME280;53303;47.476;8.084;2023-02-08T01:08:39;96700.81;;;18.75;30.94
66486;BME280;53303;47.476;8.084;2023-02-08T01:11:17;96703.59;;;18.75;30.84
66486;BME280;53303;47.476;8.084;2023-02-08T01:13:46;96719.25;;;18.78;30.70
66486;BME280;53303;47.476;8.084;2023-02-08T01:18:39;96716.03;;;18.79;30.67
66486;BME280;53303;47.476;8.084;2023-02-08T01:21:16;96719.25;;;18.78;30.64
66486;BME280;53303;47.476;8.084;2023-02-08T01:23:43;96714.66;;;18.75;30.91
66486;BME280;53303;47.476;8.084;2023-02-08T01:26:15;96722.78;;;18.78;30.94
66486;BME280;53303;47.476;8.084;2023-02-08T01:28:41;96723.56;;;18.79;30.90
66486;BME280;53303;47.476;8.084;2023-02-08T01:31:09;96722.31;;;18.80;30.80
66486;BME280;53303;47.476;8.084;2023-02-08T01:33:37;96711.88;;;18.75;30.64
66486;BME280;53303;47.476;8.084;2023-02-08T01:36:04;96720.81;;;18.79;30.74
66486;BME280;53303;47.476;8.084;2023-02-08T01:38:32;96716.03;;;18.79;30.64
66486;BME280;53303;47.476;8.084;2023-02-08T01:40:58;96704.22;;;18.79;30.83
66486;BME280;53303;47.476;8.084;2023-02-08T01:43:26;96706.19;;;18.78;30.65
66486;BME280;53303;47.476;8.084;2023-02-08T01:45:55;96706.34;;;18.75;30.77
66486;BME280;53303;47.476;8.084;2023-02-08T01:48:27;96708.97;;;18.78;30.82
66486;BME280;53303;47.476;8.084;2023-02-08T01:53:28;96702.38;;;18.76;30.51
66486;BME280;53303;47.476;8.084;2023-02-08T01:55:59;96699.91;;;18.78;30.37
66486;BME280;53303;47.476;8.084;2023-02-08T01:58:28;96707.91;;;18.76;30.66
66486;BME280;53303;47.476;8.084;2023-02-08T02:00:56;96711.88;;;18.75;30.51
66486;BME280;53303;47.476;8.084;2023-02-08T02:03:22;96699.78;;;18.72;30.55
66486;BME280;53303;47.476;8.084;2023-02-08T02:05:56;96709.75;;;18.79;30.57
66486;BME280;53303;47.476;8.084;2023-02-08T02:08:25;96705.44;;;18.78;30.94
66486;BME280;53303;47.476;8.084;2023-02-08T02:10:50;96701.13;;;18.77;30.58
66486;BME280;53303;47.476;8.084;2023-02-08T02:13:19;96702.19;;;18.79;30.42
66486;BME280;53303;47.476;8.084;2023-02-08T02:15:47;96695.91;;;18.79;30.50
66486;BME280;53303;47.476;8.084;2023-02-08T02:18:25;96690.38;;;18.79;30.82
66486;BME280;53303;47.476;8.084;2023-02-08T02:40:17;96689.31;;;18.76;30.33
66486;BME280;53303;47.476;8.084;2023-02-08T02:42:58;96685.78;;;18.76;30.49
66486;BME280;53303;47.476;8.084;2023-02-08T02:51:24;96689.94;;;18.71;30.46
66486;BME280;53303;47.476;8.084;2023-02-08T02:53:55;96683.19;;;18.72;30.25
66486;BME280;53303;47.476;8.084;2023-02-08T02:56:26;96678.53;;;18.78;30.24
66486;BME280;53303;47.476;8.084;2023-02-08T02:58:55;96691.16;;;18.79;30.23
66486;BME280;53303;47.476;8.084;2023-02-08T03:01:26;96673.78;;;18.79;30.24
66486;BME280;53303;47.476;8.084;2023-02-08T03:03:54;96671.03;;;18.79;30.24
66486;BME280;53303;47.476;8.084;2023-02-08T03:20:06;96679.31;;;18.79;30.16
66486;BME280;53303;47.476;8.084;2023-02-08T03:25:49;96682.25;;;18.75;30.06
66486;BME280;53303;47.476;8.084;2023-02-08T03:33:21;96674.44;;;18.74;30.17
66486;BME280;53303;47.476;8.084;2023-02-08T03:35:53;96668.13;;;18.73;29.96
66486;BME280;53303;47.476;8.084;2023-02-08T03:38:36;96669.47;;;18.78;30.12
66486;BME280;53303;47.476;8.084;2023-02-08T03:41:06;96671.66;;;18.74;30.01
66486;BME280;53303;47.476;8.084;2023-02-08T03:43:48;96668.59;;;18.72;30.12
66486;BME280;53303;47.476;8.084;2023-02-08T03:46:24;96680.25;;;18.76;29.95
66486;BME280;53303;47.476;8.084;2023-02-08T03:48:54;96679.31;;;18.79;30.23
66486;BME280;53303;47.476;8.084;2023-02-08T03:51:23;96673.00;;;18.78;30.28
66486;BME280;53303;47.476;8.084;2023-02-08T03:53:51;96673.78;;;18.79;30.01
66486;BME280;53303;47.476;8.084;2023-02-08T03:56:34;96668.59;;;18.72;30.03
66486;BME280;53303;47.476;8.084;2023-02-08T03:59:09;96662.41;;;18.77;29.94
66486;BME280;53303;47.476;8.084;2023-02-08T04:01:42;96667.94;;;18.77;30.05
66486;BME280;53303;47.476;8.084;2023-02-08T04:04:10;96658.59;;;18.74;29.91
66486;BME280;53303;47.476;8.084;2023-02-08T04:06:36;96658.78;;;18.71;29.93
66486;BME280;53303;47.476;8.084;2023-02-08T04:09:04;96667.94;;;18.77;30.00
66486;BME280;53303;47.476;8.084;2023-02-08T04:11:32;96661.19;;;18.78;30.13
66486;BME280;53303;47.476;8.084;2023-02-08T04:13:59;96665.50;;;18.79;30.38
66486;BME280;53303;47.476;8.084;2023-02-08T04:16:27;96657.53;;;18.72;29.88
66486;BME280;53303;47.476;8.084;2023-02-08T04:18:52;96660.44;;;18.77;30.01
66486;BME280;53303;47.476;8.084;2023-02-08T04:21:20;96647.25;;;18.72;29.89
66486;BME280;53303;47.476;8.084;2023-02-08T04:23:45;96649.38;;;18.77;29.87
66486;BME280;53303;47.476;8.084;2023-02-08T04:26:11;96659.19;;;18.78;29.79
66486;BME280;53303;47.476;8.084;2023-02-08T04:28:36;96642.47;;;18.73;29.70
66486;BME280;53303;47.476;8.084;2023-02-08T04:31:04;96638.19;;;18.72;29.89
66486;BME280;53303;47.476;8.084;2023-02-08T04:33:32;96632.34;;;18.70;29.95
66486;BME280;53303;47.476;8.084;2023-02-08T04:35:58;96643.06;;;18.77;29.71
66486;BME280;53303;47.476;8.084;2023-02-08T04:38:25;96635.25;;;18.75;29.63
66486;BME280;53303;47.476;8.084;2023-02-08T04:40:51;96641.84;;;18.78;29.88
66486;BME280;53303;47.476;8.084;2023-02-08T04:43:16;96633.72;;;18.74;29.85
66486;BME280;53303;47.476;8.084;2023-02-08T04:45:42;96629.13;;;18.71;29.83
66486;BME280;53303;47.476;8.084;2023-02-08T04:48:07;96643.84;;;18.77;29.65
66486;BME280;53303;47.476;8.084;2023-02-08T04:50:33;96644.31;;;18.76;29.67
66486;BME280;53303;47.476;8.084;2023-02-08T04:52:59;96635.72;;;18.74;29.81
66486;BME280;53303;47.476;8.084;2023-02-08T04:55:24;96633.59;;;18.69;29.72
66486;BME280;53303;47.476;8.084;2023-02-08T04:57:50;96629.59;;;18.70;29.87
66486;BME280;53303;47.476;8.084;2023-02-08T05:00:15;96629.41;;;18.73;29.74
66486;BME280;53303;47.476;8.084;2023-02-08T05:02:41;96634.47;;;18.75;29.70
66486;BME280;53303;47.476;8.084;2023-02-08T05:05:06;96623.00;;;18.67;29.14
66486;BME280;53303;47.476;8.084;2023-02-08T05:07:32;96629.28;;;18.68;29.30
66486;BME280;53303;47.476;8.084;2023-02-08T05:10:02;96637.59;;;18.68;29.25
66486;BME280;53303;47.476;8.084;2023-02-08T05:12:28;96630.53;;;18.67;28.76
66486;BME280;53303;47.476;8.084;2023-02-08T05:14:54;96628.81;;;18.69;28.73
66486;BME280;53303;47.476;8.084;2023-02-08T05:17:23;96638.19;;;18.72;28.58
66486;BME280;53303;47.476;8.084;2023-02-08T05:19:51;96641.44;;;18.70;28.45
66486;BME280;53303;47.476;8.084;2023-02-08T05:22:17;96644.47;;;18.72;28.60
66486;BME280;53303;47.476;8.084;2023-02-08T05:24:42;96642.19;;;18.71;28.43
66486;BME280;53303;47.476;8.084;2023-02-08T05:27:10;96646.78;;;18.74;28.47
66486;BME280;53303;47.476;8.084;2023-02-08T05:29:41;96647.06;;;18.76;28.51
66486;BME280;53303;47.476;8.084;2023-02-08T05:32:09;96640.78;;;18.75;28.71
66486;BME280;53303;47.476;8.084;2023-02-08T05:34:37;96634.47;;;18.75;28.63
66486;BME280;53303;47.476;8.084;2023-02-08T05:37:03;96640.28;;;18.77;28.63
66486;BME280;53303;47.476;8.084;2023-02-08T05:39:30;96643.84;;;18.77;28.65
66486;BME280;53303;47.476;8.084;2023-02-08T05:41:58;96646.31;;;18.75;28.63
66486;BME280;53303;47.476;8.084;2023-02-08T05:44:23;96639.25;;;18.74;28.77
66486;BME280;53303;47.476;8.084;2023-02-08T05:46:49;96650.41;;;18.80;28.71
66486;BME280;53303;47.476;8.084;2023-02-08T05:49:14;96649.84;;;18.76;28.79
66486;BME280;53303;47.476;8.084;2023-02-08T05:51:42;96655.84;;;18.74;28.65
66486;BME280;53303;47.476;8.084;2023-02-08T05:54:12;96650.41;;;18.80;28.57
66486;BME280;53303;47.476;8.084;2023-02-08T05:56:37;96657.50;;;18.81;28.75
66486;BME280;53303;47.476;8.084;2023-02-08T05:59:03;96654.13;;;18.77;28.69
66486;BME280;53303;47.476;8.084;2023-02-08T06:01:28;96661.03;;;18.81;28.57
66486;BME280;53303;47.476;8.084;2023-02-08T06:03:54;96659.66;;;18.77;28.56
66486;BME280;53303;47.476;8.084;2023-02-08T06:06:20;96661.81;;;18.82;28.67
66486;BME280;53303;47.476;8.084;2023-02-08T06:08:46;96661.47;;;18.80;28.63
66486;BME280;53303;47.476;8.084;2023-02-08T06:11:12;96662.59;;;18.82;28.61
66486;BME280;53303;47.476;8.084;2023-02-08T06:13:45;96674.56;;;18.79;28.79
66486;BME280;53303;47.476;8.084;2023-02-08T06:16:12;96674.88;;;18.81;28.96
66486;BME280;53303;47.476;8.084;2023-02-08T06:18:40;96680.41;;;18.81;28.48
66486;BME280;53303;47.476;8.084;2023-02-08T06:21:08;96668.25;;;18.79;28.82
66486;BME280;53303;47.476;8.084;2023-02-08T06:23:34;96680.84;;;18.80;28.61
66486;BME280;53303;47.476;8.084;2023-02-08T06:25:59;96674.88;;;18.81;28.57
66486;BME280;53303;47.476;8.084;2023-02-08T06:28:27;96671.97;;;18.76;28.85
66486;BME280;53303;47.476;8.084;2023-02-08T06:30:54;96677.31;;;18.79;28.67
66486;BME280;53303;47.476;8.084;2023-02-08T06:33:22;96673.78;;;18.79;28.84
66486;BME280;53303;47.476;8.084;2023-02-08T06:35:50;96679.94;;;18.83;28.70
66486;BME280;53303;47.476;8.084;2023-02-08T06:38:19;96676.41;;;18.82;28.75
66486;BME280;53303;47.476;8.084;2023-02-08T06:40:46;96681.44;;;18.84;28.79
66486;BME280;53303;47.476;8.084;2023-02-08T06:43:12;96684.22;;;18.84;28.76
66486;BME280;53303;47.476;8.084;2023-02-08T06:45:37;96675.00;;;18.78;28.72
66486;BME280;53303;47.476;8.084;2023-02-08T06:48:03;96685.00;;;18.85;28.94
66486;BME280;53303;47.476;8.084;2023-02-08T06:50:31;96679.63;;;18.81;28.76
66486;BME280;53303;47.476;8.084;2023-02-08T06:52:56;96680.09;;;18.79;28.75
66486;BME280;53303;47.476;8.084;2023-02-08T06:55:24;96689.47;;;18.82;28.84
66486;BME280;53303;47.476;8.084;2023-02-08T06:57:52;96699.28;;;18.83;28.51
66486;BME280;53303;47.476;8.084;2023-02-08T07:00:20;96694.22;;;18.81;28.68
66486;BME280;53303;47.476;8.084;2023-02-08T07:02:46;96691.91;;;18.80;28.84
66486;BME280;53303;47.476;8.084;2023-02-08T07:05:12;96694.97;;;18.82;29.01
66486;BME280;53303;47.476;8.084;2023-02-08T07:07:40;96688.69;;;18.81;28.90
66486;BME280;53303;47.476;8.084;2023-02-08T07:10:08;96682.38;;;18.81;28.63
66486;BME280;53303;47.476;8.084;2023-02-08T07:12:34;96672.53;;;18.80;28.79
66486;BME280;53303;47.476;8.084;2023-02-08T07:15:02;96681.16;;;18.82;28.99
66486;BME280;53303;47.476;8.084;2023-02-08T07:17:28;96680.69;;;18.83;28.79
66486;BME280;53303;47.476;8.084;2023-02-08T07:19:53;96671.78;;;18.79;28.72
66486;BME280;53303;47.476;8.084;2023-02-08T07:22:19;96683.16;;;18.81;28.82
66486;BME280;53303;47.476;8.084;2023-02-08T07:24:46;96685.00;;;18.85;28.79
66486;BME280;53303;47.476;8.084;2023-02-08T07:27:14;96688.06;;;18.87;28.61
66486;BME280;53303;47.476;8.084;2023-02-08T07:29:44;96675.31;;;18.80;28.87
66486;BME280;53303;47.476;8.084;2023-02-08T07:32:09;96680.69;;;18.83;28.91
66486;BME280;53303;47.476;8.084;2023-02-08T07:34:38;96693.31;;;18.85;28.92
66486;BME280;53303;47.476;8.084;2023-02-08T07:37:05;96684.13;;;18.69;28.60
66486;BME280;53303;47.476;8.084;2023-02-08T07:39:33;96701.88;;;18.87;28.62
66486;BME280;53303;47.476;8.084;2023-02-08T07:42:00;96693.75;;;18.83;28.51
66486;BME280;53303;47.476;8.084;2023-02-08T07:44:26;96703.91;;;18.86;28.76
66486;BME280;53303;47.476;8.084;2023-02-08T07:46:51;96696.53;;;18.83;28.62
66486;BME280;53303;47.476;8.084;2023-02-08T07:49:17;96692.66;;;18.80;29.02
66486;BME280;53303;47.476;8.084;2023-02-08T07:51:44;96698.03;;;18.84;28.41
66486;BME280;53303;47.476;8.084;2023-02-08T07:54:12;96680.41;;;18.81;28.93
66486;BME280;53303;47.476;8.084;2023-02-08T07:56:38;96693.44;;;18.81;28.54
66486;BME280;53303;47.476;8.084;2023-02-08T07:59:03;96698.97;;;18.81;28.70
66486;BME280;53303;47.476;8.084;2023-02-08T08:01:31;96699.75;;;18.81;28.77
66486;BME280;53303;47.476;8.084;2023-02-08T08:03:58;96694.66;;;18.80;28.72
66486;BME280;53303;47.476;8.084;2023-02-08T08:06:24;96711.13;;;18.83;28.86
66486;BME280;53303;47.476;8.084;2023-02-08T08:08:50;96715.13;;;18.82;28.80
66486;BME280;53303;47.476;8.084;2023-02-08T08:11:17;96715.44;;;18.85;28.83
66486;BME280;53303;47.476;8.084;2023-02-08T08:13:45;96705.72;;;18.80;28.75
66486;BME280;53303;47.476;8.084;2023-02-08T08:16:11;96713.41;;;18.85;28.94
66486;BME280;53303;47.476;8.084;2023-02-08T08:18:37;96708.06;;;18.81;28.77
66486;BME280;53303;47.476;8.084;2023-02-08T08:21:05;96709.25;;;18.80;28.59
66486;BME280;53303;47.476;8.084;2023-02-08T08:23:34;96715.44;;;18.85;28.64
66486;BME280;53303;47.476;8.084;2023-02-08T08:26:11;96715.13;;;18.82;28.79
66486;BME280;53303;47.476;8.084;2023-02-08T08:28:40;96718.94;;;18.85;28.56
66486;BME280;53303;47.476;8.084;2023-02-08T08:31:16;96718.19;;;18.85;28.66
66486;BME280;53303;47.476;8.084;2023-02-08T08:33:42;96717.91;;;18.82;28.74
66486;BME280;53303;47.476;8.084;2023-02-08T08:36:08;96722.94;;;18.84;28.87
66486;BME280;53303;47.476;8.084;2023-02-08T08:38:33;96714.34;;;18.82;28.84
66486;BME280;53303;47.476;8.084;2023-02-08T08:40:59;96721.09;;;18.81;28.59
66486;BME280;53303;47.476;8.084;2023-02-08T08:43:28;96711.25;;;18.80;28.70
66486;BME280;53303;47.476;8.084;2023-02-08T08:45:56;96727.72;;;18.83;28.69
66486;BME280;53303;47.476;8.084;2023-02-08T08:48:22;96711.72;;;18.78;28.66
66486;BME280;53303;47.476;8.084;2023-02-08T08:50:47;96718.34;;;18.81;28.81
66486;BME280;53303;47.476;8.084;2023-02-08T08:53:13;96716.50;;;18.78;28.78
66486;BME280;53303;47.476;8.084;2023-02-08T08:55:38;96720.16;;;18.84;28.55
66486;BME280;53303;47.476;8.084;2023-02-08T08:58:08;96713.41;;;18.85;28.87
66486;BME280;53303;47.476;8.084;2023-02-08T09:00:34;96707.28;;;18.81;28.75
66486;BME280;53303;47.476;8.084;2023-02-08T09:03:01;96708.06;;;18.81;28.78
66486;BME280;53303;47.476;8.084;2023-02-08T09:05:27;96718.66;;;18.83;28.82
66486;BME280;53303;47.476;8.084;2023-02-08T09:07:54;96721.72;;;18.85;28.73
66486;BME280;53303;47.476;8.084;2023-02-08T09:10:27;96715.13;;;18.82;28.71
66486;BME280;53303;47.476;8.084;2023-02-08T09:12:54;96717.41;;;18.84;28.89
66486;BME280;53303;47.476;8.084;2023-02-08T09:15:20;96714.63;;;18.84;28.75
66486;BME280;53303;47.476;8.084;2023-02-08T09:17:45;96727.25;;;18.85;28.76
66486;BME280;53303;47.476;8.084;2023-02-08T09:20:11;96718.66;;;18.83;28.73
66486;BME280;53303;47.476;8.084;2023-02-08T09:22:41;96713.41;;;18.85;28.89
66486;BME280;53303;47.476;8.084;2023-02-08T09:25:07;96729.09;;;18.88;28.80
66486;BME280;53303;47.476;8.084;2023-02-08T09:27:36;96715.13;;;18.82;28.75
66486;BME280;53303;47.476;8.084;2023-02-08T09:30:01;96717.25;;;18.88;28.67
66486;BME280;53303;47.476;8.084;2023-02-08T09:32:30;96715.13;;;18.82;28.70
66486;BME280;53303;47.476;8.084;2023-02-08T09:34:58;96714.63;;;18.84;29.04
66486;BME280;53303;47.476;8.084;2023-02-08T09:37:23;96721.25;;;18.87;28.79
66486;BME280;53303;47.476;8.084;2023-02-08T09:39:49;96709.09;;;18.84;28.83
66486;BME280;53303;47.476;8.084;2023-02-08T09:42:24;96717.25;;;18.88;28.74
66486;BME280;53303;47.476;8.084;2023-02-08T09:50:31;96718.19;;;18.85;28.73
66486;BME280;53303;47.476;8.084;2023-02-08T09:53:32;96716.34;;;18.81;28.87
66486;BME280;53303;47.476;8.084;2023-02-08T09:56:03;96721.25;;;18.87;28.59
66486;BME280;53303;47.476;8.084;2023-02-08T09:58:36;96715.88;;;18.83;28.93
66486;BME280;53303;47.476;8.084;2023-02-08T10:01:06;96714.34;;;18.82;28.77
66486;BME280;53303;47.476;8.084;2023-02-08T10:03:40;96720.16;;;18.84;28.71
66486;BME280;53303;47.476;8.084;2023-02-08T10:06:11;96719.53;;;18.89;28.79
66486;BME280;53303;47.476;8.084;2023-02-08T10:08:41;96708.34;;;18.83;28.61
66486;BME280;53303;47.476;8.084;2023-02-08T10:16:51;96713.59;;;18.81;28.73
66486;BME280;53303;47.476;8.084;2023-02-08T10:24:28;96719.53;;;18.89;28.65
66486;BME280;53303;47.476;8.084;2023-02-08T10:27:47;96716.78;;;18.89;28.75
66486;BME280;53303;47.476;8.084;2023-02-08T10:35:14;96707.25;;;18.90;28.73
66486;BME280;53303;47.476;8.084;2023-02-08T10:37:43;96708.00;;;18.91;28.71
66486;BME280;53303;47.476;8.084;2023-02-08T10:40:35;96701.25;;;18.92;28.79
66486;BME280;53303;47.476;8.084;2023-02-08T10:51:42;96692.97;;;18.92;28.74
66486;BME280;53303;47.476;8.084;2023-02-08T10:54:11;96688.19;;;18.92;28.76
66486;BME280;53303;47.476;8.084;2023-02-08T10:56:44;96692.03;;;18.95;28.53
66486;BME280;53303;47.476;8.084;2023-02-08T11:00:14;96692.19;;;18.91;28.50
66486;BME280;53303;47.476;8.084;2023-02-08T11:02:22;96696.31;;;18.96;28.76
66486;BME280;53303;47.476;8.084;2023-02-08T11:07:35;96678.66;;;18.93;28.57
66486;BME280;53303;47.476;8.084;2023-02-08T11:12:39;96686.00;;;18.96;28.69
66486;BME280;53303;47.476;8.084;2023-02-08T11:15:15;96676.38;;;18.92;28.55
66486;BME280;53303;47.476;8.084;2023-02-08T11:17:41;96686.00;;;18.96;28.63
66486;BME280;53303;47.476;8.084;2023-02-08T11:20:21;96681.72;;;18.95;28.81
66486;BME280;53303;47.476;8.084;2023-02-08T11:22:49;96674.19;;;18.96;28.66
66486;BME280;53303;47.476;8.084;2023-02-08T11:25:32;96677.41;;;18.94;28.57
66486;BME280;53303;47.476;8.084;2023-02-08T11:27:58;96678.03;;;18.98;28.68
66486;BME280;53303;47.476;8.084;2023-02-08T11:30:24;96671.69;;;18.98;28.64
66486;BME280;53303;47.476;8.084;2023-02-08T11:33:19;96672.16;;;18.96;28.62
66486;BME280;53303;47.476;8.084;2023-02-08T11:35:59;96655.75;;;18.93;28.59
66486;BME280;53303;47.476;8.084;2023-02-08T11:38:29;96668.00;;;19.01;28.70
66486;BME280;53303;47.476;8.084;2023-02-08T11:40:58;96668.28;;;19.03;28.69
66486;BME280;53303;47.476;8.084;2023-02-08T11:43:30;96664.19;;;18.98;28.44
66486;BME280;53303;47.476;8.084;2023-02-08T11:45:59;96658.94;;;19.00;28.41
66486;BME280;53303;47.476;8.084;2023-02-08T11:51:03;96657.22;;;19.03;28.44
66486;BME280;53303;47.476;8.084;2023-02-08T11:53:34;96661.06;;;19.06;28.55
66486;BME280;53303;47.476;8.084;2023-02-08T11:56:24;96654.94;;;19.01;28.26
66486;BME280;53303;47.476;8.084;2023-02-08T12:04:04;96651.81;;;19.09;28.67
66486;BME280;53303;47.476;8.084;2023-02-08T12:06:57;96658.31;;;19.06;28.62
66486;BME280;53303;47.476;8.084;2023-02-08T12:23:58;96643.34;;;19.12;28.65
66486;BME280;53303;47.476;8.084;2023-02-08T12:26:55;96644.88;;;19.13;28.51
66486;BME280;53303;47.476;8.084;2023-02-08T12:52:05;96617.88;;;19.23;28.71
66486;BME280;53303;47.476;8.084;2023-02-08T12:54:39;96612.34;;;19.23;28.86
66486;BME280;53303;47.476;8.084;2023-02-08T12:57:11;96608.19;;;19.28;28.53
66486;BME280;53303;47.476;8.084;2023-02-08T12:59:43;96601.72;;;19.31;28.65
66486;BME280;53303;47.476;8.084;2023-02-08T13:02:17;96590.34;;;19.29;28.60
66486;BME280;53303;47.476;8.084;2023-02-08T13:04:50;96587.41;;;19.32;28.69
66486;BME280;53303;47.476;8.084;2023-02-08T13:12:31;96584.91;;;19.34;28.70
66486;BME280;53303;47.476;8.084;2023-02-08T13:22:41;96585.13;;;19.46;28.75
66486;BME280;53303;47.476;8.084;2023-02-08T13:25:25;96587.88;;;19.46;28.67
66486;BME280;53303;47.476;8.084;2023-02-08T13:27:53;96579.88;;;19.48;28.52
66486;BME280;53303;47.476;8.084;2023-02-08T13:30:20;96578.16;;;19.50;28.60
66486;BME280;53303;47.476;8.084;2023-02-08T13:32:49;96571.56;;;19.48;28.55
66486;BME280;53303;47.476;8.084;2023-02-08T13:38:17;96566.63;;;19.52;28.70
66486;BME280;53303;47.476;8.084;2023-02-08T13:40:44;96565.19;;;19.56;28.68
66486;BME280;53303;47.476;8.084;2023-02-08T13:45:43;96568.31;;;19.64;28.64
66486;BME280;53303;47.476;8.084;2023-02-08T13:48:13;96572.06;;;19.61;28.56
66486;BME280;53303;47.476;8.084;2023-02-08T13:53:06;96569.09;;;19.65;28.64
66486;BME280;53303;47.476;8.084;2023-02-08T14:03:30;96588.41;;;19.74;28.64
66486;BME280;53303;47.476;8.084;2023-02-08T14:06:14;96582.13;;;19.73;28.52
66486;BME280;53303;47.476;8.084;2023-02-08T14:14:03;96591.94;;;19.74;28.55
66486;BME280;53303;47.476;8.084;2023-02-08T14:16:44;96589.28;;;19.80;28.41
66486;BME280;53303;47.476;8.084;2023-02-08T14:21:47;96588.13;;;19.87;28.38
66486;BME280;53303;47.476;8.084;2023-02-08T14:24:23;96587.38;;;19.86;28.45
66486;BME280;53303;47.476;8.084;2023-02-08T14:27:07;96580.97;;;19.80;28.28
66486;BME280;53303;47.476;8.084;2023-02-08T14:29:34;96585.63;;;19.89;28.66
66486;BME280;53303;47.476;8.084;2023-02-08T14:31:59;96584.03;;;19.82;28.67
66486;BME280;53303;47.476;8.084;2023-02-08T14:34:28;96588.13;;;19.87;28.67
66486;BME280;53303;47.476;8.084;2023-02-08T14:39:43;96589.19;;;19.89;28.79
66486;BME280;53303;47.476;8.084;2023-02-08T14:42:09;96578.78;;;19.84;28.60
66486;BME280;53303;47.476;8.084;2023-02-08T14:49:54;96581.84;;;19.86;28.34
66486;BME280;53303;47.476;8.084;2023-02-08T14:52:26;96590.44;;;19.88;28.45
66486;BME280;53303;47.476;8.084;2023-02-08T14:55:02;96592.91;;;19.86;28.51
66486;BME280;53303;47.476;8.084;2023-02-08T14:57:35;96597.19;;;19.87;28.59
66486;BME280;53303;47.476;8.084;2023-02-08T15:00:15;96598.25;;;19.90;28.63
66486;BME280;53303;47.476;8.084;2023-02-08T15:02:44;96604.28;;;19.88;28.64
66486;BME280;53303;47.476;8.084;2023-02-08T15:05:23;96595.59;;;19.81;28.65
66486;BME280;53303;47.476;8.084;2023-02-08T15:07:52;96594.44;;;19.87;28.53
66486;BME280;53303;47.476;8.084;2023-02-08T15:10:25;96582.78;;;19.83;28.68
66486;BME280;53303;47.476;8.084;2023-02-08T15:12:59;96583.06;;;19.85;28.65
66486;BME280;53303;47.476;8.084;2023-02-08T15:15:42;96582.50;;;19.81;28.60
66486;BME280;53303;47.476;8.084;2023-02-08T15:18:22;96579.44;;;19.79;28.97
66486;BME280;53303;47.476;8.084;2023-02-08T15:21:01;96577.16;;;19.77;28.79
66486;BME280;53303;47.476;8.084;2023-02-08T15:23:32;96582.69;;;19.77;28.97
66486;BME280;53303;47.476;8.084;2023-02-08T15:26:14;96579.91;;;19.77;28.85
66486;BME280;53303;47.476;8.084;2023-02-08T15:28:47;96580.47;;;19.67;29.16
66486;BME280;53303;47.476;8.084;2023-02-08T15:31:16;96583.03;;;19.70;29.01
66486;BME280;53303;47.476;8.084;2023-02-08T15:33:42;96586.56;;;19.71;28.94
66486;BME280;53303;47.476;8.084;2023-02-08T15:38:49;96581.69;;;19.66;29.08
66486;BME280;53303;47.476;8.084;2023-02-08T15:41:28;96586.38;;;19.59;29.14
66486;BME280;53303;47.476;8.084;2023-02-08T15:46:38;96580.75;;;19.54;29.25
66486;BME280;53303;47.476;8.084;2023-02-08T15:49:06;96579.22;;;19.53;29.19
66486;BME280;53303;47.476;8.084;2023-02-08T15:51:34;96581.41;;;19.49;29.21
66486;BME280;53303;47.476;8.084;2023-02-08T15:53:59;96585.69;;;19.50;29.29
66486;BME280;53303;47.476;8.084;2023-02-08T15:56:35;96584.84;;;19.44;29.31
66486;BME280;53303;47.476;8.084;2023-02-08T15:59:06;96585.03;;;19.40;29.52
66486;BME280;53303;47.476;8.084;2023-02-08T16:01:40;96588.72;;;19.37;29.41
66486;BME280;53303;47.476;8.084;2023-02-08T16:04:12;96591.78;;;19.39;29.51
66486;BME280;53303;47.476;8.084;2023-02-08T16:06:49;96588.91;;;19.33;29.40
66486;BME280;53303;47.476;8.084;2023-02-08T16:09:23;96587.78;;;19.25;29.51
66486;BME280;53303;47.476;8.084;2023-02-08T16:11:52;96599.69;;;19.31;29.66
66486;BME280;53303;47.476;8.084;2023-02-08T16:14:23;96597.88;;;19.28;29.61